createdAt,value
2019-05-15T00:00:28.946Z,-159
2019-05-15T00:00:58.876Z,-156
2019-05-15T00:01:28.701Z,-156
2019-05-15T00:01:58.576Z,-156
2019-05-15T00:02:28.609Z,-160
2019-05-15T00:02:58.978Z,-160
2019-05-15T00:03:28.884Z,-152
2019-05-15T00:03:58.663Z,-157
2019-05-15T00:04:28.617Z,-157
2019-05-15T00:04:58.734Z,-153
2019-05-15T00:05:29.160Z,-156
2019-05-15T00:05:58.877Z,-156
2019-05-15T00:06:28.875Z,-159
2019-05-15T00:06:58.734Z,-159
2019-05-15T00:07:29.331Z,-153
2019-05-15T00:07:59.238Z,-163
2019-05-15T00:08:28.866Z,-153
2019-05-15T00:08:58.993Z,-159
2019-05-15T00:09:28.965Z,-155
2019-05-15T00:09:58.963Z,-156
2019-05-15T00:10:28.896Z,-163
2019-05-15T00:10:58.869Z,-152
2019-05-15T00:11:28.913Z,-159
2019-05-15T00:11:59.095Z,-159
2019-05-15T00:12:28.918Z,-155
2019-05-15T00:12:58.937Z,-159
2019-05-15T00:13:29.056Z,-155
2019-05-15T00:13:59.077Z,-155
2019-05-15T00:14:28.989Z,-155
2019-05-15T00:14:58.959Z,-160
2019-05-15T00:15:28.845Z,-159
2019-05-15T00:15:59.106Z,-159
2019-05-15T00:16:29.105Z,-163
2019-05-15T00:16:58.911Z,-154
2019-05-15T00:17:28.950Z,-157
2019-05-15T00:17:59.004Z,-157
2019-05-15T00:18:28.996Z,-159
2019-05-15T00:18:59.134Z,-154
2019-05-15T00:19:29.006Z,-154
2019-05-15T00:19:59.058Z,-154
2019-05-15T00:20:29.431Z,-154
2019-05-15T00:20:59.546Z,-156
2019-05-15T00:21:29.103Z,-157
2019-05-15T00:21:59.217Z,-155
2019-05-15T00:22:29.205Z,-155
2019-05-15T00:22:59.021Z,-156
2019-05-15T00:23:29.273Z,-156
2019-05-15T00:23:59.059Z,-161
2019-05-15T00:24:29.154Z,-161
2019-05-15T00:24:59.244Z,-157
2019-05-15T00:25:29.319Z,-157
2019-05-15T00:25:59.175Z,-156
2019-05-15T00:26:29.993Z,-156
2019-05-15T00:26:59.125Z,-156
2019-05-15T00:27:29.181Z,-158
2019-05-15T00:27:59.243Z,-158
2019-05-15T00:28:29.305Z,-156
2019-05-15T00:29:11.400Z,-156
2019-05-15T00:29:29.450Z,-159
2019-05-15T00:29:59.197Z,-156
2019-05-15T00:30:29.247Z,-154
2019-05-15T00:30:59.181Z,-154
2019-05-15T00:31:29.278Z,-156
2019-05-15T00:31:59.185Z,-156
2019-05-15T00:32:29.220Z,-161
2019-05-15T00:32:59.250Z,-161
2019-05-15T00:33:29.295Z,-153
2019-05-15T00:33:59.292Z,-158
2019-05-15T00:34:29.342Z,-158
2019-05-15T00:34:59.262Z,-160
2019-05-15T00:35:30.700Z,-157
2019-05-15T00:35:59.370Z,-165
2019-05-15T00:36:29.283Z,-165
2019-05-15T00:36:59.414Z,-156
2019-05-15T00:37:29.466Z,-155
2019-05-15T00:37:59.494Z,-157
2019-05-15T00:38:29.359Z,-157
2019-05-15T00:38:59.351Z,-164
2019-05-15T00:39:29.379Z,-159
2019-05-15T00:39:59.391Z,-159
2019-05-15T00:40:29.532Z,-169
2019-05-15T00:40:59.538Z,-163
2019-05-15T00:41:29.670Z,-160
2019-05-15T00:41:59.468Z,-160
2019-05-15T00:42:29.466Z,-162
2019-05-15T00:43:59.707Z,-165
2019-05-15T00:44:29.647Z,-165
2019-05-15T00:44:59.640Z,-157
2019-05-15T00:45:59.634Z,-161
2019-05-15T00:46:29.664Z,-162
2019-05-15T00:46:59.633Z,-158
2019-05-15T00:47:29.678Z,-164
2019-05-15T00:48:29.646Z,-165
2019-05-15T00:48:59.633Z,-165
2019-05-15T00:49:29.647Z,-163
2019-05-15T00:49:59.657Z,-161
2019-05-15T00:50:29.776Z,-161
2019-05-15T00:50:59.719Z,-160
2019-05-15T00:51:29.660Z,-166
2019-05-15T00:51:59.687Z,-166
2019-05-15T00:52:29.885Z,-159
2019-05-15T00:52:59.836Z,-159
2019-05-15T00:53:59.872Z,-164
2019-05-15T00:54:29.799Z,-162
2019-05-15T00:54:59.764Z,-161
2019-05-15T00:55:29.812Z,-161
2019-05-15T00:55:59.820Z,-160
2019-05-15T00:56:29.855Z,-160
2019-05-15T00:56:59.898Z,-166
2019-05-15T00:57:29.971Z,-166
2019-05-15T00:58:00.003Z,-162
2019-05-15T00:58:29.893Z,-162
2019-05-15T00:58:59.867Z,-158
2019-05-15T00:59:30.267Z,-158
2019-05-15T01:00:00.038Z,-165
2019-05-15T01:00:30.016Z,-165
2019-05-15T01:01:00.106Z,-164
2019-05-15T01:01:30.101Z,-163
2019-05-15T01:01:59.984Z,-161
2019-05-15T01:02:29.979Z,-162
2019-05-15T01:02:59.993Z,-162
2019-05-15T01:03:30.082Z,-160
2019-05-15T01:04:00.006Z,-157
2019-05-15T01:04:30.063Z,-162
2019-05-15T01:05:00.051Z,-159
2019-05-15T01:05:30.072Z,-156
2019-05-15T01:06:00.178Z,-156
2019-05-15T01:06:30.132Z,-159
2019-05-15T01:07:00.171Z,-157
2019-05-15T01:07:30.150Z,-155
2019-05-15T01:08:00.133Z,-155
2019-05-15T01:08:30.226Z,-156
2019-05-15T01:09:00.251Z,-159
2019-05-15T01:09:30.342Z,-161
2019-05-15T01:10:00.299Z,-161
2019-05-15T01:10:30.355Z,-161
2019-05-15T01:11:00.196Z,-160
2019-05-15T01:11:30.219Z,-156
2019-05-15T01:12:00.222Z,-157
2019-05-15T01:12:30.248Z,-159
2019-05-15T01:13:00.456Z,-157
2019-05-15T01:13:30.484Z,-159
2019-05-15T01:14:30.293Z,-157
2019-05-15T01:15:00.295Z,-159
2019-05-15T01:15:30.312Z,-159
2019-05-15T01:16:00.293Z,-159
2019-05-15T01:16:30.408Z,-161
2019-05-15T01:17:30.530Z,-155
2019-05-15T01:18:30.379Z,-159
2019-05-15T01:19:00.438Z,-159
2019-05-15T01:20:00.526Z,-158
2019-05-15T01:20:30.460Z,-158
2019-05-15T01:21:00.539Z,-155
2019-05-15T01:21:30.487Z,-153
2019-05-15T01:22:00.672Z,-153
2019-05-15T01:22:30.612Z,-162
2019-05-15T01:23:30.527Z,-162
2019-05-15T01:24:00.571Z,-155
2019-05-15T01:24:30.588Z,-152
2019-05-15T01:25:00.710Z,-154
2019-05-15T01:26:30.715Z,-158
2019-05-15T01:27:30.763Z,-157
2019-05-15T01:28:00.580Z,-160
2019-05-15T01:28:30.838Z,-157
2019-05-15T01:29:40.355Z,-153
2019-05-15T01:30:00.864Z,-153
2019-05-15T01:30:30.793Z,-153
2019-05-15T01:31:00.779Z,-156
2019-05-15T01:31:31.031Z,-156
2019-05-15T01:32:00.650Z,-154
2019-05-15T01:32:30.742Z,-156
2019-05-15T01:33:00.921Z,-156
2019-05-15T01:33:30.922Z,-153
2019-05-15T01:34:00.743Z,-151
2019-05-15T01:34:30.710Z,-151
2019-05-15T01:35:00.724Z,-152
2019-05-15T01:35:30.748Z,-157
2019-05-15T01:36:00.759Z,-157
2019-05-15T01:36:30.701Z,-157
2019-05-15T01:37:00.782Z,-155
2019-05-15T01:37:30.731Z,-155
2019-05-15T01:38:00.868Z,-160
2019-05-15T01:38:30.871Z,-159
2019-05-15T01:39:00.756Z,-159
2019-05-15T01:39:30.922Z,-157
2019-05-15T01:40:00.867Z,-159
2019-05-15T01:40:30.863Z,-158
2019-05-15T01:41:00.889Z,-155
2019-05-15T01:41:31.036Z,-155
2019-05-15T01:42:01.098Z,-157
2019-05-15T01:42:31.079Z,-155
2019-05-15T01:43:01.116Z,-155
2019-05-15T01:43:30.962Z,-156
2019-05-15T01:44:01.052Z,-159
2019-05-15T01:44:30.979Z,-159
2019-05-15T01:45:01.003Z,-155
2019-05-15T01:45:31.076Z,-155
2019-05-15T01:46:01.112Z,-161
2019-05-15T01:46:31.189Z,-151
2019-05-15T01:47:01.047Z,-163
2019-05-15T01:47:31.049Z,-160
2019-05-15T01:48:01.041Z,-157
2019-05-15T01:48:31.032Z,-155
2019-05-15T01:49:01.125Z,-155
2019-05-15T01:49:31.209Z,-156
2019-05-15T01:50:01.267Z,-159
2019-05-15T01:50:31.171Z,-160
2019-05-15T01:51:01.058Z,-153
2019-05-15T01:51:31.084Z,-160
2019-05-15T01:52:01.227Z,-160
2019-05-15T01:52:31.055Z,-153
2019-05-15T01:53:01.151Z,-153
2019-05-15T01:53:31.157Z,-154
2019-05-15T01:54:01.218Z,-153
2019-05-15T01:54:31.179Z,-153
2019-05-15T01:55:01.169Z,-153
2019-05-15T01:55:31.212Z,-152
2019-05-15T01:56:01.229Z,-155
2019-05-15T01:56:31.190Z,-152
2019-05-15T01:57:01.183Z,-152
2019-05-15T01:57:31.306Z,-157
2019-05-15T01:58:31.407Z,-154
2019-05-15T01:59:01.422Z,-154
2019-05-15T01:59:31.496Z,-159
2019-05-15T02:00:01.362Z,-157
2019-05-15T02:00:31.294Z,-158
2019-05-15T02:01:01.275Z,-155
2019-05-15T02:01:31.390Z,-155
2019-05-15T02:02:01.450Z,-150
2019-05-15T02:02:31.459Z,-156
2019-05-15T02:04:01.333Z,-160
2019-05-15T02:04:31.392Z,-157
2019-05-15T02:05:01.561Z,-157
2019-05-15T02:05:31.676Z,-153
2019-05-15T02:06:01.502Z,-161
2019-05-15T02:06:31.567Z,-156
2019-05-15T02:07:01.476Z,-159
2019-05-15T02:07:31.447Z,-154
2019-05-15T02:08:01.552Z,-160
2019-05-15T02:08:31.515Z,-153
2019-05-15T02:09:01.503Z,-155
2019-05-15T02:09:31.521Z,-155
2019-05-15T02:10:01.518Z,-154
2019-05-15T02:10:31.541Z,-153
2019-05-15T02:11:01.695Z,-153
2019-05-15T02:11:31.543Z,-155
2019-05-15T02:12:01.680Z,-153
2019-05-15T02:12:31.545Z,-151
2019-05-15T02:13:01.616Z,-152
2019-05-15T02:13:31.587Z,-156
2019-05-15T02:14:01.705Z,-156
2019-05-15T02:14:31.749Z,-159
2019-05-15T02:15:01.889Z,-158
2019-05-15T02:15:31.846Z,-158
2019-05-15T02:16:01.674Z,-155
2019-05-15T02:16:31.668Z,-152
2019-05-15T02:17:01.658Z,-156
2019-05-15T02:17:31.755Z,-156
2019-05-15T02:18:01.833Z,-152
2019-05-15T02:18:31.928Z,-156
2019-05-15T02:19:01.947Z,-155
2019-05-15T02:19:31.779Z,-152
2019-05-15T02:20:01.763Z,-158
2019-05-15T02:20:31.765Z,-153
2019-05-15T02:21:01.795Z,-153
2019-05-15T02:21:31.862Z,-153
2019-05-15T02:22:01.942Z,-155
2019-05-15T02:22:31.952Z,-159
2019-05-15T02:23:01.856Z,-161
2019-05-15T02:23:31.838Z,-152
2019-05-15T02:24:01.871Z,-149
2019-05-15T02:24:31.826Z,-158
2019-05-15T02:25:01.975Z,-157
2019-05-15T02:25:31.865Z,-160
2019-05-15T02:26:01.920Z,-157
2019-05-15T02:26:31.970Z,-157
2019-05-15T02:27:01.993Z,-155
2019-05-15T02:27:32.035Z,-159
2019-05-15T02:28:01.968Z,-155
2019-05-15T02:28:31.959Z,-156
2019-05-15T02:29:01.956Z,-151
2019-05-15T02:29:31.965Z,-157
2019-05-15T02:30:15.564Z,-156
2019-05-15T02:30:33.999Z,-151
2019-05-15T02:31:02.194Z,-151
2019-05-15T02:31:32.226Z,-157
2019-05-15T02:32:02.043Z,-157
2019-05-15T02:32:32.020Z,-151
2019-05-15T02:33:02.122Z,-153
2019-05-15T02:33:32.054Z,-154
2019-05-15T02:34:02.172Z,-158
2019-05-15T02:34:32.217Z,-158
2019-05-15T02:35:02.366Z,-159
2019-05-15T02:35:32.219Z,-153
2019-05-15T02:36:02.148Z,-153
2019-05-15T02:36:32.129Z,-155
2019-05-15T02:37:02.175Z,-155
2019-05-15T02:37:32.229Z,-152
2019-05-15T02:38:02.281Z,-152
2019-05-15T02:39:32.282Z,-155
2019-05-15T02:40:02.243Z,-152
2019-05-15T02:40:32.218Z,-152
2019-05-15T02:41:02.392Z,-157
2019-05-15T02:41:32.241Z,-158
2019-05-15T02:42:02.331Z,-158
2019-05-15T02:42:32.263Z,-154
2019-05-15T02:43:02.325Z,-153
2019-05-15T02:43:32.317Z,-159
2019-05-15T02:44:02.429Z,-159
2019-05-15T02:44:32.421Z,-152
2019-05-15T02:45:02.336Z,-152
2019-05-15T02:45:36.410Z,-160
2019-05-15T02:46:02.351Z,-155
2019-05-15T02:46:32.461Z,-155
2019-05-15T02:47:02.458Z,-152
2019-05-15T02:47:32.526Z,-159
2019-05-15T02:48:02.655Z,-161
2019-05-15T02:48:32.490Z,-161
2019-05-15T02:49:02.435Z,-158
2019-05-15T02:49:32.433Z,-162
2019-05-15T02:50:02.465Z,-162
2019-05-15T02:50:32.607Z,-157
2019-05-15T02:51:02.568Z,-155
2019-05-15T02:51:32.821Z,-155
2019-05-15T02:52:02.760Z,-154
2019-05-15T02:52:32.562Z,-152
2019-05-15T02:53:02.582Z,-161
2019-05-15T02:53:32.594Z,-161
2019-05-15T02:54:02.622Z,-161
2019-05-15T02:54:32.718Z,-158
2019-05-15T02:55:02.761Z,-155
2019-05-15T02:55:32.804Z,-155
2019-05-15T02:56:02.665Z,-157
2019-05-15T02:56:32.659Z,-159
2019-05-15T02:57:02.638Z,-154
2019-05-15T02:57:32.783Z,-159
2019-05-15T02:58:02.649Z,-159
2019-05-15T02:58:32.655Z,-154
2019-05-15T02:59:02.722Z,-159
2019-05-15T02:59:32.722Z,-159
2019-05-15T03:00:02.782Z,-159
2019-05-15T03:00:41.453Z,-154
2019-05-15T03:01:02.706Z,-154
2019-05-15T03:01:32.712Z,-154
2019-05-15T03:02:02.732Z,-157
2019-05-15T03:02:32.758Z,-157
2019-05-15T03:03:02.811Z,-153
2019-05-15T03:04:03.069Z,-156
2019-05-15T03:04:33.014Z,-159
2019-05-15T03:05:02.783Z,-159
2019-05-15T03:05:32.777Z,-155
2019-05-15T03:06:02.823Z,-151
2019-05-15T03:06:32.891Z,-156
2019-05-15T03:07:02.973Z,-156
2019-05-15T03:07:32.977Z,-152
2019-05-15T03:08:02.973Z,-158
2019-05-15T03:08:32.940Z,-158
2019-05-15T03:09:02.893Z,-151
2019-05-15T03:09:32.905Z,-157
2019-05-15T03:10:33.149Z,-153
2019-05-15T03:11:03.152Z,-151
2019-05-15T03:11:33.225Z,-151
2019-05-15T03:12:03.022Z,-151
2019-05-15T03:12:33.034Z,-154
2019-05-15T03:13:03.078Z,-158
2019-05-15T03:13:33.074Z,-155
2019-05-15T03:14:03.051Z,-155
2019-05-15T03:14:33.085Z,-154
2019-05-15T03:15:03.082Z,-153
2019-05-15T03:15:33.184Z,-153
2019-05-15T03:16:03.112Z,-153
2019-05-15T03:16:33.216Z,-153
2019-05-15T03:17:03.156Z,-154
2019-05-15T03:17:33.113Z,-160
2019-05-15T03:18:03.124Z,-150
2019-05-15T03:18:33.172Z,-151
2019-05-15T03:19:03.256Z,-151
2019-05-15T03:19:33.298Z,-156
2019-05-15T03:20:03.383Z,-151
2019-05-15T03:20:33.410Z,-151
2019-05-15T03:21:03.315Z,-162
2019-05-15T03:21:33.238Z,-162
2019-05-15T03:22:03.292Z,-156
2019-05-15T03:22:33.270Z,-156
2019-05-15T03:23:03.413Z,-158
2019-05-15T03:23:33.421Z,-158
2019-05-15T03:24:03.398Z,-156
2019-05-15T03:25:03.282Z,-154
2019-05-15T03:25:33.367Z,-156
2019-05-15T03:26:04.435Z,-157
2019-05-15T03:26:33.492Z,-160
2019-05-15T03:27:03.498Z,-160
2019-05-15T03:27:34.822Z,-155
2019-05-15T03:28:03.520Z,-158
2019-05-15T03:28:33.394Z,-158
2019-05-15T03:29:03.391Z,-159
2019-05-15T03:29:33.362Z,-157
2019-05-15T03:30:03.525Z,-155
2019-05-15T03:31:02.451Z,-160
2019-05-15T03:31:17.318Z,-160
2019-05-15T03:31:43.074Z,-153
2019-05-15T03:32:17.113Z,-157
2019-05-15T03:32:40.650Z,-155
2019-05-15T03:33:09.820Z,-153
2019-05-15T03:33:36.130Z,-154
2019-05-15T03:34:03.938Z,-154
2019-05-15T03:34:37.852Z,-154
2019-05-15T03:35:04.428Z,-160
2019-05-15T03:35:33.620Z,-160
2019-05-15T03:36:03.900Z,-156
2019-05-15T03:36:33.641Z,-154
2019-05-15T03:37:04.207Z,-154
2019-05-15T03:37:34.200Z,-156
2019-05-15T03:38:03.624Z,-156
2019-05-15T03:38:33.623Z,-152
2019-05-15T03:39:03.633Z,-152
2019-05-15T03:39:33.706Z,-157
2019-05-15T03:40:03.776Z,-158
2019-05-15T03:40:33.803Z,-154
2019-05-15T03:41:03.816Z,-152
2019-05-15T03:41:33.748Z,-152
2019-05-15T03:42:03.679Z,-154
2019-05-15T03:42:33.735Z,-160
2019-05-15T03:43:03.826Z,-156
2019-05-15T03:43:33.756Z,-150
2019-05-15T03:44:03.854Z,-150
2019-05-15T03:44:33.905Z,-158
2019-05-15T03:45:03.775Z,-158
2019-05-15T03:45:33.793Z,-155
2019-05-15T03:46:03.831Z,-155
2019-05-15T03:46:33.871Z,-155
2019-05-15T03:47:03.833Z,-160
2019-05-15T03:47:33.797Z,-162
2019-05-15T03:48:03.836Z,-162
2019-05-15T03:48:33.830Z,-162
2019-05-15T03:49:03.850Z,-153
2019-05-15T03:49:33.913Z,-156
2019-05-15T03:50:03.923Z,-156
2019-05-15T03:50:33.878Z,-153
2019-05-15T03:51:03.893Z,-155
2019-05-15T03:51:33.929Z,-158
2019-05-15T03:52:03.956Z,-152
2019-05-15T03:52:33.994Z,-157
2019-05-15T03:53:03.991Z,-154
2019-05-15T03:53:34.146Z,-152
2019-05-15T03:54:04.178Z,-152
2019-05-15T03:54:33.958Z,-150
2019-05-15T03:55:03.989Z,-157
2019-05-15T03:55:34.035Z,-157
2019-05-15T03:56:04.045Z,-154
2019-05-15T03:56:34.286Z,-152
2019-05-15T03:57:04.304Z,-154
2019-05-15T03:57:34.287Z,-159
2019-05-15T03:58:04.169Z,-156
2019-05-15T03:58:34.095Z,-154
2019-05-15T03:59:04.049Z,-158
2019-05-15T03:59:34.131Z,-158
2019-05-15T04:00:04.230Z,-154
2019-05-15T04:00:34.320Z,-152
2019-05-15T04:01:38.349Z,-155
2019-05-15T04:02:04.236Z,-154
2019-05-15T04:02:34.377Z,-159
2019-05-15T04:03:04.280Z,-155
2019-05-15T04:03:34.270Z,-151
2019-05-15T04:04:04.289Z,-154
2019-05-15T04:04:34.293Z,-154
2019-05-15T04:05:04.263Z,-155
2019-05-15T04:05:34.320Z,-157
2019-05-15T04:06:04.351Z,-157
2019-05-15T04:06:34.342Z,-160
2019-05-15T04:07:04.505Z,-160
2019-05-15T04:07:34.412Z,-154
2019-05-15T04:08:04.525Z,-154
2019-05-15T04:08:34.464Z,-152
2019-05-15T04:09:34.520Z,-156
2019-05-15T04:11:34.577Z,-154
2019-05-15T04:12:04.519Z,-159
2019-05-15T04:12:34.548Z,-159
2019-05-15T04:13:04.593Z,-156
2019-05-15T04:15:04.666Z,-156
2019-05-15T04:15:34.652Z,-162
2019-05-15T04:16:04.614Z,-162
2019-05-15T04:16:34.634Z,-159
2019-05-15T04:17:04.707Z,-159
2019-05-15T04:17:34.727Z,-159
2019-05-15T04:19:04.799Z,-153
2019-05-15T04:19:34.666Z,-149
2019-05-15T04:20:04.640Z,-147
2019-05-15T04:20:34.662Z,-142
2019-05-15T04:21:04.676Z,-142
2019-05-15T04:21:34.664Z,-141
2019-05-15T04:22:04.718Z,-141
2019-05-15T04:22:34.757Z,-142
2019-05-15T04:23:04.786Z,-144
2019-05-15T04:23:34.814Z,-142
2019-05-15T04:24:04.802Z,-140
2019-05-15T04:24:34.852Z,-137
2019-05-15T04:25:04.777Z,-143
2019-05-15T04:25:34.762Z,-143
2019-05-15T04:26:04.782Z,-135
2019-05-15T04:26:34.886Z,-133
2019-05-15T04:28:34.889Z,-135
2019-05-15T04:29:04.877Z,-131
2019-05-15T04:29:34.896Z,-133
2019-05-15T04:36:05.061Z,-132
2019-05-15T04:38:05.071Z,-121
2019-05-15T04:38:35.056Z,-118
2019-05-15T04:46:35.223Z,-123
2019-05-15T05:44:08.131Z,-135
2019-05-15T05:45:38.284Z,-163
2019-05-15T05:46:36.824Z,-165
2019-05-15T05:47:09.105Z,-156
2019-05-15T05:48:08.798Z,-168
2019-05-15T05:50:07.929Z,-160
2019-05-15T05:54:08.388Z,-175
2019-05-15T05:55:08.694Z,-162
2019-05-15T05:58:38.874Z,-122
2019-05-15T05:59:09.130Z,-117
2019-05-15T06:19:38.526Z,-50
2019-05-15T06:22:38.619Z,-116
2019-05-15T06:24:12.915Z,-108
2019-05-15T06:25:11.131Z,-102
2019-05-15T06:26:09.357Z,-111
2019-05-15T06:28:39.338Z,-124
2019-05-15T06:29:08.810Z,-119
2019-05-15T06:29:37.924Z,-111
2019-05-15T06:30:08.777Z,-255
2019-05-15T06:30:38.667Z,-260
2019-05-15T06:31:08.717Z,-192
2019-05-15T06:31:38.777Z,-146
2019-05-15T06:32:08.035Z,-143
2019-05-15T06:32:39.718Z,-147
2019-05-15T06:33:12.609Z,-137
2019-05-15T06:33:38.352Z,-139
2019-05-15T06:34:08.307Z,-136
2019-05-15T06:34:38.040Z,-144
2019-05-15T06:35:08.657Z,-144
2019-05-15T06:35:39.356Z,-141
2019-05-15T06:36:08.855Z,-163
2019-05-15T06:36:39.232Z,-142
2019-05-15T06:37:08.395Z,-141
2019-05-15T06:37:39.487Z,-135
2019-05-15T06:38:08.501Z,-134
2019-05-15T06:38:39.201Z,-161
2019-05-15T06:39:08.505Z,-157
2019-05-15T06:39:39.022Z,-177
2019-05-15T06:40:08.434Z,-182
2019-05-15T06:40:39.480Z,-152
2019-05-15T06:41:08.675Z,-142
2019-05-15T06:41:38.986Z,-151
2019-05-15T06:42:08.764Z,-151
2019-05-15T06:42:39.216Z,-133
2019-05-15T06:43:08.718Z,-112
2019-05-15T06:43:38.824Z,-107
2019-05-15T06:44:08.130Z,-103
2019-05-15T06:44:38.762Z,-97
2019-05-15T06:45:08.285Z,-102
2019-05-15T06:45:38.131Z,-97
2019-05-15T06:46:09.101Z,-92
2019-05-15T06:46:39.202Z,-88
2019-05-15T06:47:08.220Z,-234
2019-05-15T06:47:39.416Z,-234
2019-05-15T06:48:09.406Z,-153
2019-05-15T06:48:38.335Z,-115
2019-05-15T06:49:08.495Z,-93
2019-05-15T06:49:38.089Z,-98
2019-05-15T06:50:08.546Z,-109
2019-05-15T06:50:38.326Z,-102
2019-05-15T06:51:08.970Z,-101
2019-05-15T06:51:38.386Z,-73
2019-05-15T06:52:08.783Z,-48
2019-05-15T06:52:38.300Z,-56
2019-05-15T06:53:10.632Z,-58
2019-05-15T06:53:38.534Z,-48
2019-05-15T06:54:08.812Z,-41
2019-05-15T06:54:38.189Z,-42
2019-05-15T06:55:09.011Z,-38
2019-05-15T06:55:38.776Z,-44
2019-05-15T06:56:08.236Z,-41
2019-05-15T06:56:38.817Z,-73
2019-05-15T06:57:09.042Z,-73
2019-05-15T06:57:39.616Z,-63
2019-05-15T06:58:09.176Z,-68
2019-05-15T06:58:38.792Z,-70
2019-05-15T06:59:08.888Z,-56
2019-05-15T06:59:38.879Z,-47
2019-05-15T07:00:08.524Z,-38
2019-05-15T07:00:38.978Z,-43
2019-05-15T07:01:08.869Z,-2
2019-05-15T07:01:38.605Z,-6
2019-05-15T07:02:08.529Z,-28
2019-05-15T07:02:38.653Z,-29
2019-05-15T07:03:17.837Z,-49
2019-05-15T07:03:39.173Z,-61
2019-05-15T07:04:08.538Z,-56
2019-05-15T07:04:38.554Z,-62
2019-05-15T07:05:08.510Z,-71
2019-05-15T07:05:38.707Z,-79
2019-05-15T07:06:09.551Z,-78
2019-05-15T07:06:38.504Z,-87
2019-05-15T07:07:11.092Z,-89
2019-05-15T07:07:38.952Z,-92
2019-05-15T07:08:09.125Z,-92
2019-05-15T07:08:38.587Z,-94
2019-05-15T07:09:09.371Z,-99
2019-05-15T07:09:38.701Z,-105
2019-05-15T07:10:09.166Z,-104
2019-05-15T07:10:38.589Z,-102
2019-05-15T07:11:09.039Z,-108
2019-05-15T07:11:38.842Z,-82
2019-05-15T07:12:08.662Z,-13
2019-05-15T07:12:39.282Z,4
2019-05-15T07:13:08.893Z,7
2019-05-15T07:13:38.704Z,12
2019-05-15T07:14:09.018Z,11
2019-05-15T07:14:38.656Z,14
2019-05-15T07:15:09.174Z,14
2019-05-15T07:15:38.866Z,-3
2019-05-15T07:16:08.694Z,-6
2019-05-15T07:16:39.079Z,3
2019-05-15T07:17:09.034Z,2
2019-05-15T07:17:39.397Z,3
2019-05-15T07:18:08.855Z,4
2019-05-15T07:18:39.273Z,10
2019-05-15T07:19:09.114Z,-1
2019-05-15T07:19:39.388Z,-9
2019-05-15T07:20:08.973Z,-17
2019-05-15T07:20:39.147Z,-34
2019-05-15T07:21:10.039Z,-32
2019-05-15T07:21:39.024Z,-39
2019-05-15T07:22:09.432Z,-38
2019-05-15T07:22:39.437Z,-32
2019-05-15T07:23:09.042Z,-29
2019-05-15T07:23:39.029Z,-26
2019-05-15T07:24:09.268Z,-26
2019-05-15T07:24:38.960Z,-30
2019-05-15T07:25:09.036Z,-34
2019-05-15T07:25:39.141Z,-33
2019-05-15T07:26:09.607Z,-36
2019-05-15T07:26:39.339Z,-40
2019-05-15T07:27:09.047Z,-31
2019-05-15T07:27:39.321Z,-20
2019-05-15T07:28:09.055Z,-4
2019-05-15T07:28:38.966Z,-10
2019-05-15T07:29:08.957Z,-43
2019-05-15T07:29:38.999Z,-48
2019-05-15T07:30:11.810Z,-57
2019-05-15T07:30:41.050Z,-62
2019-05-15T07:31:11.527Z,-70
2019-05-15T07:31:38.961Z,-73
2019-05-15T07:32:09.012Z,-89
2019-05-15T07:32:39.548Z,-87
2019-05-15T07:33:09.129Z,-84
2019-05-15T07:33:43.099Z,-94
2019-05-15T07:34:09.017Z,-91
2019-05-15T07:34:39.077Z,-110
2019-05-15T07:35:09.165Z,-113
2019-05-15T07:35:39.065Z,-107
2019-05-15T07:36:09.130Z,-116
2019-05-15T07:36:39.284Z,-117
2019-05-15T07:37:09.787Z,-155
2019-05-15T07:38:09.178Z,-38
2019-05-15T07:38:39.367Z,25
2019-05-15T07:39:09.201Z,9
2019-05-15T07:39:39.276Z,28
2019-05-15T07:40:09.248Z,34
2019-05-15T07:40:39.610Z,25
2019-05-15T07:41:10.057Z,24
2019-05-15T07:41:39.353Z,28
2019-05-15T07:42:09.236Z,-4
2019-05-15T07:42:39.205Z,-13
2019-05-15T07:43:09.517Z,14
2019-05-15T07:43:39.497Z,13
2019-05-15T07:44:09.482Z,16
2019-05-15T07:44:39.496Z,12
2019-05-15T07:45:09.485Z,20
2019-05-15T07:45:43.279Z,21
2019-05-15T07:46:09.514Z,24
2019-05-15T07:46:39.491Z,40
2019-05-15T07:53:39.800Z,32
2019-05-15T07:54:09.681Z,41
2019-05-15T07:54:39.676Z,36
2019-05-15T07:55:39.629Z,49
2019-05-15T07:56:39.648Z,55
2019-05-15T07:57:09.760Z,58
2019-05-15T07:57:39.849Z,60
2019-05-15T07:58:09.737Z,64
2019-05-15T07:58:39.645Z,65
2019-05-15T07:59:09.673Z,73
2019-05-15T07:59:39.659Z,76
2019-05-15T08:00:09.804Z,79
2019-05-15T08:00:40.125Z,84
2019-05-15T08:01:10.100Z,81
2019-05-15T08:01:39.797Z,96
2019-05-15T08:02:09.766Z,115
2019-05-15T08:02:39.798Z,136
2019-05-15T08:03:10.422Z,135
2019-05-15T08:03:55.310Z,138
2019-05-15T08:04:23.055Z,146
2019-05-15T08:04:39.758Z,142
2019-05-15T08:05:09.759Z,143
2019-05-15T08:05:53.581Z,146
2019-05-15T08:06:09.823Z,156
2019-05-15T08:06:39.851Z,156
2019-05-15T08:07:09.822Z,149
2019-05-15T08:07:39.877Z,149
2019-05-15T08:08:09.966Z,156
2019-05-15T08:08:39.901Z,161
2019-05-15T08:09:09.962Z,170
2019-05-15T08:09:39.937Z,175
2019-05-15T08:10:10.086Z,182
2019-05-15T08:10:40.037Z,184
2019-05-15T08:11:19.702Z,180
2019-05-15T08:11:40.126Z,172
2019-05-15T08:12:10.044Z,152
2019-05-15T08:12:39.981Z,177
2019-05-15T08:13:10.041Z,159
2019-05-15T08:13:40.106Z,170
2019-05-15T08:14:10.237Z,169
2019-05-15T08:14:40.132Z,167
2019-05-15T08:15:10.251Z,150
2019-05-15T08:15:40.288Z,126
2019-05-15T08:16:10.180Z,125
2019-05-15T08:16:40.050Z,125
2019-05-15T08:17:10.075Z,116
2019-05-15T08:17:58.321Z,124
2019-05-15T08:18:12.880Z,114
2019-05-15T08:18:40.545Z,120
2019-05-15T08:19:10.310Z,124
2019-05-15T08:19:40.282Z,107
2019-05-15T08:20:10.247Z,88
2019-05-15T08:20:40.161Z,95
2019-05-15T08:21:10.149Z,91
2019-05-15T08:21:40.221Z,90
2019-05-15T08:22:10.207Z,92
2019-05-15T08:22:40.226Z,82
2019-05-15T08:23:10.211Z,72
2019-05-15T08:23:40.226Z,73
2019-05-15T08:24:10.351Z,65
2019-05-15T08:24:40.322Z,56
2019-05-15T08:25:11.593Z,58
2019-05-15T08:25:40.343Z,57
2019-05-15T08:26:10.345Z,66
2019-05-15T08:26:44.921Z,74
2019-05-15T08:27:10.282Z,69
2019-05-15T08:27:40.336Z,82
2019-05-15T08:28:10.539Z,86
2019-05-15T08:28:40.513Z,100
2019-05-15T08:29:10.676Z,103
2019-05-15T08:29:40.701Z,104
2019-05-15T08:30:10.487Z,122
2019-05-15T08:30:40.457Z,146
2019-05-15T08:31:10.622Z,142
2019-05-15T08:31:40.435Z,142
2019-05-15T08:32:40.646Z,127
2019-05-15T08:33:10.795Z,134
2019-05-15T08:33:40.668Z,128
2019-05-15T08:34:13.338Z,126
2019-05-15T08:34:40.617Z,133
2019-05-15T08:35:12.615Z,141
2019-05-15T08:35:44.522Z,131
2019-05-15T08:36:10.692Z,132
2019-05-15T08:36:40.848Z,129
2019-05-15T08:37:10.711Z,129
2019-05-15T08:37:40.535Z,123
2019-05-15T08:38:14.102Z,128
2019-05-15T08:38:40.641Z,133
2019-05-15T08:39:10.672Z,99
2019-05-15T08:39:40.670Z,128
2019-05-15T08:40:10.920Z,109
2019-05-15T08:40:41.157Z,111
2019-05-15T08:41:11.622Z,121
2019-05-15T08:41:40.730Z,128
2019-05-15T08:42:10.677Z,137
2019-05-15T08:42:41.910Z,130
2019-05-15T08:43:11.460Z,127
2019-05-15T08:43:40.780Z,124
2019-05-15T08:44:10.759Z,123
2019-05-15T08:44:40.783Z,113
2019-05-15T08:45:10.813Z,113
2019-05-15T08:45:40.979Z,117
2019-05-15T08:46:43.861Z,114
2019-05-15T08:47:10.963Z,104
2019-05-15T08:47:40.943Z,120
2019-05-15T08:48:10.793Z,113
2019-05-15T08:48:40.916Z,108
2019-05-15T08:49:10.945Z,91
2019-05-15T08:49:41.187Z,89
2019-05-15T08:50:11.110Z,102
2019-05-15T08:50:41.078Z,117
2019-05-15T08:51:10.998Z,117
2019-05-15T08:51:40.969Z,122
2019-05-15T08:52:10.963Z,90
2019-05-15T08:52:40.985Z,107
2019-05-15T08:53:11.092Z,108
2019-05-15T08:53:41.135Z,105
2019-05-15T08:54:11.225Z,108
2019-05-15T08:54:41.164Z,101
2019-05-15T08:55:11.065Z,100
2019-05-15T08:55:41.098Z,89
2019-05-15T08:56:11.059Z,92
2019-05-15T08:56:41.215Z,92
2019-05-15T08:57:11.095Z,100
2019-05-15T08:57:41.092Z,111
2019-05-15T08:58:13.833Z,105
2019-05-15T08:58:41.126Z,103
2019-05-15T08:59:11.142Z,85
2019-05-15T08:59:41.125Z,110
2019-05-15T09:00:11.169Z,106
2019-05-15T09:00:44.024Z,97